PWSweather.com
Personal Weather Stations
Station Observations
KOMOKA
Komoka Village, Komoka, ON N0L IRO

Komoka VillageKomoka, ON N0L IRO

Lat: 42.9542444, Lon: -81.4348861

Elevation: 805

Station Type: Davis Vantage Pro 2

www.komokaweather.com

High Low Average
Temperature 62.1°F16.7°C 47.8°F8.8°C 55.2°F12.9°C
Dew Point 51.6°F10.9°C 33.4°F0.8°C 40.1°F4.5°C
Winds 8.0 mph 12.9 kmh Calm Calm 3.0 mph N4.8 kmh N
Wind Gusts 29.0 mph46.7 kmh 1.0 mph1.6 kmh 11.0 mph17.7 kmh
Humidity 75% 38% 58%
Pressure 29.71 in1006.1 mb 29.55 in1000.7 mb -
Precipitation 0.17 in4.3 mm - -
Hour Temp Dew Point Humidity Winds Wind Gusts Pressure Precip Precip Rate Daily Precip Total
12:03 AM 57.6°F14.2°C 49.8°F9.9°C 75% 1.0 mph N1.6 kmh N 7.0 mph11.3 kmh 29.64 in1003.7 mb 0.09 in2.3 mm 1.80 in45.7 mm 0.10 in2.5 mm
12:10 AM 58.1°F14.5°C 50.2°F10.1°C 75% 1.0 mph N1.6 kmh N 4.0 mph6.4 kmh 29.64 in1003.7 mb 0.07 in1.8 mm 0.00 in0.0 mm 0.11 in2.8 mm
12:17 AM 58.5°F14.7°C 50.5°F10.3°C 75% 1.0 mph N1.6 kmh N 7.0 mph11.3 kmh 29.64 in1003.7 mb 0.08 in2.0 mm 0.09 in2.3 mm 0.13 in3.3 mm
12:24 AM 58.6°F14.8°C 50.7°F10.4°C 75% 1.0 mph N1.6 kmh N 7.0 mph11.3 kmh 29.63 in1003.4 mb 0.07 in1.8 mm 0.00 in0.0 mm 0.13 in3.3 mm
12:31 AM 58.8°F14.9°C 50.9°F10.5°C 75% 3.0 mph N4.8 kmh N 7.0 mph11.3 kmh 29.63 in1003.4 mb 0.06 in1.5 mm 0.00 in0.0 mm 0.13 in3.3 mm
12:38 AM 58.8°F14.9°C 50.9°F10.5°C 75% 1.0 mph N1.6 kmh N 7.0 mph11.3 kmh 29.63 in1003.4 mb 0.06 in1.5 mm 0.00 in0.0 mm 0.14 in3.6 mm
12:55 AM 59.4°F15.2°C 51.4°F10.8°C 75% 1.0 mph N1.6 kmh N 7.0 mph11.3 kmh 29.63 in1003.4 mb 0.06 in1.5 mm 0.00 in0.0 mm 0.15 in3.8 mm
01:02 AM 59.4°F15.2°C 51.4°F10.8°C 75% 3.0 mph N4.8 kmh N 7.0 mph11.3 kmh 29.63 in1003.4 mb 0.05 in1.3 mm 0.00 in0.0 mm 0.15 in3.8 mm
01:09 AM 59.4°F15.2°C 51.4°F10.8°C 75% 3.0 mph N4.8 kmh N 7.0 mph11.3 kmh 29.62 in1003.0 mb 0.05 in1.3 mm 0.00 in0.0 mm 0.15 in3.8 mm
01:16 AM 59.4°F15.2°C 51.4°F10.8°C 75% 3.0 mph N4.8 kmh N 8.0 mph12.9 kmh 29.62 in1003.0 mb 0.02 in0.5 mm 0.00 in0.0 mm 0.15 in3.8 mm
01:23 AM 59.5°F15.3°C 51.6°F10.9°C 75% 3.0 mph N4.8 kmh N 8.0 mph12.9 kmh 29.62 in1003.0 mb 0.02 in0.5 mm 0.00 in0.0 mm 0.15 in3.8 mm
01:30 AM 59.5°F15.3°C 51.6°F10.9°C 75% 3.0 mph N4.8 kmh N 7.0 mph11.3 kmh 29.62 in1003.0 mb 0.01 in0.3 mm 0.00 in0.0 mm 0.15 in3.8 mm
01:37 AM 59.5°F15.3°C 51.6°F10.9°C 75% 1.0 mph N1.6 kmh N 7.0 mph11.3 kmh 29.63 in1003.4 mb 0.01 in0.3 mm 0.00 in0.0 mm 0.15 in3.8 mm
01:50 AM 59.6°F15.3°C 51.3°F10.7°C 74% 3.0 mph N4.8 kmh N 8.0 mph12.9 kmh 29.63 in1003.4 mb 0.01 in0.3 mm 0.00 in0.0 mm 0.16 in4.1 mm
02:00 AM 59.7°F15.4°C 51.4°F10.8°C 74% 3.0 mph N4.8 kmh N 8.0 mph12.9 kmh 29.63 in1003.4 mb 0.01 in0.3 mm 0.00 in0.0 mm 0.16 in4.1 mm
02:10 AM 59.7°F15.4°C 51.4°F10.8°C 74% 3.0 mph N4.8 kmh N 8.0 mph12.9 kmh 29.63 in1003.4 mb 0.01 in0.3 mm 0.00 in0.0 mm 0.16 in4.1 mm
02:20 AM 59.8°F15.4°C 51.5°F10.8°C 74% 3.0 mph N4.8 kmh N 9.0 mph14.5 kmh 29.62 in1003.0 mb 0.01 in0.3 mm 0.00 in0.0 mm 0.16 in4.1 mm
02:30 AM 59.9°F15.5°C 51.6°F10.9°C 74% 1.0 mph N1.6 kmh N 5.0 mph8.0 kmh 29.62 in1003.0 mb 0.01 in0.3 mm 0.00 in0.0 mm 0.16 in4.1 mm
02:40 AM 59.8°F15.4°C 51.5°F10.8°C 74% 1.0 mph N1.6 kmh N 5.0 mph8.0 kmh 29.61 in1002.7 mb 0.01 in0.3 mm 0.00 in0.0 mm 0.16 in4.1 mm
02:50 AM 59.9°F15.5°C 51.6°F10.9°C 74% 1.0 mph N1.6 kmh N 5.0 mph8.0 kmh 29.62 in1003.0 mb 0.00 in0.0 mm 0.00 in0.0 mm 0.16 in4.1 mm
03:00 AM 60.1°F15.6°C 51.4°F10.8°C 73% 3.0 mph N4.8 kmh N 12.0 mph19.3 kmh 29.61 in1002.7 mb 0.00 in0.0 mm 0.00 in0.0 mm 0.16 in4.1 mm
03:10 AM 60.1°F15.6°C 51.4°F10.8°C 73% 3.0 mph N4.8 kmh N 7.0 mph11.3 kmh 29.61 in1002.7 mb 0.00 in0.0 mm 0.00 in0.0 mm 0.16 in4.1 mm
03:20 AM 60.2°F15.7°C 51.5°F10.8°C 73% 3.0 mph N4.8 kmh N 9.0 mph14.5 kmh 29.61 in1002.7 mb 0.00 in0.0 mm 0.00 in0.0 mm 0.16 in4.1 mm
03:30 AM 60.4°F15.8°C 51.3°F10.7°C 72% 3.0 mph N4.8 kmh N 7.0 mph11.3 kmh 29.61 in1002.7 mb 0.00 in0.0 mm 0.00 in0.0 mm 0.16 in4.1 mm
03:40 AM 60.2°F15.7°C 51.1°F10.6°C 72% 1.0 mph N1.6 kmh N 5.0 mph8.0 kmh 29.61 in1002.7 mb 0.00 in0.0 mm 0.00 in0.0 mm 0.16 in4.1 mm
03:50 AM 60.1°F15.6°C 51.0°F10.6°C 72% 3.0 mph N4.8 kmh N 7.0 mph11.3 kmh 29.61 in1002.7 mb 0.00 in0.0 mm 0.00 in0.0 mm 0.16 in4.1 mm
04:00 AM 60.1°F15.6°C 51.0°F10.6°C 72% 3.0 mph N4.8 kmh N 9.0 mph14.5 kmh 29.60 in1002.4 mb 0.00 in0.0 mm 0.00 in0.0 mm 0.16 in4.1 mm
04:10 AM 60.0°F15.6°C 50.9°F10.5°C 72% 3.0 mph N4.8 kmh N 9.0 mph14.5 kmh 29.60 in1002.4 mb 0.00 in0.0 mm 0.00 in0.0 mm 0.16 in4.1 mm
04:20 AM 60.0°F15.6°C 50.9°F10.5°C 72% 1.0 mph N1.6 kmh N 9.0 mph14.5 kmh 29.60 in1002.4 mb 0.00 in0.0 mm 0.00 in0.0 mm 0.16 in4.1 mm
04:30 AM 59.8°F15.4°C 50.8°F10.4°C 72% 1.0 mph N1.6 kmh N 4.0 mph6.4 kmh 29.60 in1002.4 mb 0.00 in0.0 mm 0.00 in0.0 mm 0.16 in4.1 mm
04:40 AM 59.8°F15.4°C 50.8°F10.4°C 72% 3.0 mph N4.8 kmh N 8.0 mph12.9 kmh 29.59 in1002.0 mb 0.00 in0.0 mm 0.00 in0.0 mm 0.16 in4.1 mm
04:50 AM 59.7°F15.4°C 50.7°F10.4°C 72% 3.0 mph N4.8 kmh N 7.0 mph11.3 kmh 29.59 in1002.0 mb 0.00 in0.0 mm 0.00 in0.0 mm 0.16 in4.1 mm
05:00 AM 59.4°F15.2°C 50.4°F10.2°C 72% 1.0 mph N1.6 kmh N 7.0 mph11.3 kmh 29.59 in1002.0 mb 0.00 in0.0 mm 0.00 in0.0 mm 0.16 in4.1 mm
05:10 AM 59.1°F15.1°C 50.1°F10.1°C 72% 1.0 mph N1.6 kmh N 4.0 mph6.4 kmh 29.59 in1002.0 mb 0.00 in0.0 mm 0.00 in0.0 mm 0.16 in4.1 mm
05:20 AM 58.8°F14.9°C 50.2°F10.1°C 73% 1.0 mph N1.6 kmh N 5.0 mph8.0 kmh 29.59 in1002.0 mb 0.00 in0.0 mm 0.00 in0.0 mm 0.16 in4.1 mm
05:30 AM 58.7°F14.8°C 50.1°F10.1°C 73% 1.0 mph N1.6 kmh N 4.0 mph6.4 kmh 29.59 in1002.0 mb 0.00 in0.0 mm 0.00 in0.0 mm 0.16 in4.1 mm
05:40 AM 58.4°F14.7°C 49.8°F9.9°C 73% Calm Calm 3.0 mph4.8 kmh 29.59 in1002.0 mb 0.00 in0.0 mm 0.00 in0.0 mm 0.16 in4.1 mm
05:50 AM 58.2°F14.6°C 49.6°F9.8°C 73% Calm Calm 3.0 mph4.8 kmh 29.57 in1001.4 mb 0.00 in0.0 mm 0.00 in0.0 mm 0.16 in4.1 mm
06:00 AM 58.3°F14.6°C 49.7°F9.8°C 73% Calm Calm 3.0 mph4.8 kmh 29.58 in1001.7 mb 0.00 in0.0 mm 0.00 in0.0 mm 0.16 in4.1 mm
06:10 AM 58.0°F14.4°C 49.4°F9.7°C 73% 1.0 mph N1.6 kmh N 5.0 mph8.0 kmh 29.59 in1002.0 mb 0.00 in0.0 mm 0.00 in0.0 mm 0.16 in4.1 mm
06:20 AM 57.5°F14.2°C 47.8°F8.8°C 70% 1.0 mph N1.6 kmh N 4.0 mph6.4 kmh 29.59 in1002.0 mb 0.00 in0.0 mm 0.00 in0.0 mm 0.16 in4.1 mm
06:30 AM 57.1°F13.9°C 46.6°F8.1°C 68% 1.0 mph N1.6 kmh N 7.0 mph11.3 kmh 29.61 in1002.7 mb 0.00 in0.0 mm 0.00 in0.0 mm 0.16 in4.1 mm
06:40 AM 56.8°F13.8°C 46.0°F7.8°C 67% 1.0 mph N1.6 kmh N 3.0 mph4.8 kmh 29.62 in1003.0 mb 0.00 in0.0 mm 0.00 in0.0 mm 0.16 in4.1 mm
06:50 AM 56.5°F13.6°C 45.3°F7.4°C 66% 1.0 mph N1.6 kmh N 5.0 mph8.0 kmh 29.62 in1003.0 mb 0.00 in0.0 mm 0.00 in0.0 mm 0.16 in4.1 mm
07:00 AM 56.0°F13.3°C 43.6°F6.4°C 63% 1.0 mph N1.6 kmh N 4.0 mph6.4 kmh 29.62 in1003.0 mb 0.00 in0.0 mm 0.00 in0.0 mm 0.16 in4.1 mm
07:10 AM 55.7°F13.2°C 43.3°F6.3°C 63% 1.0 mph N1.6 kmh N 5.0 mph8.0 kmh 29.63 in1003.4 mb 0.00 in0.0 mm 0.00 in0.0 mm 0.16 in4.1 mm
07:20 AM 55.0°F12.8°C 42.2°F5.7°C 62% 1.0 mph N1.6 kmh N 7.0 mph11.3 kmh 29.61 in1002.7 mb 0.00 in0.0 mm 0.00 in0.0 mm 0.16 in4.1 mm
07:30 AM 54.3°F12.4°C 41.6°F5.3°C 62% 1.0 mph N1.6 kmh N 4.0 mph6.4 kmh 29.60 in1002.4 mb 0.00 in0.0 mm 0.00 in0.0 mm 0.16 in4.1 mm
07:40 AM 52.5°F11.4°C 41.9°F5.5°C 67% Calm Calm 1.0 mph1.6 kmh 29.59 in1002.0 mb 0.00 in0.0 mm 0.00 in0.0 mm 0.16 in4.1 mm
07:50 AM 51.8°F11.0°C 41.6°F5.3°C 68% Calm Calm 1.0 mph1.6 kmh 29.59 in1002.0 mb 0.00 in0.0 mm 0.00 in0.0 mm 0.16 in4.1 mm
08:00 AM 51.5°F10.8°C 42.0°F5.6°C 70% Calm Calm 1.0 mph1.6 kmh 29.59 in1002.0 mb 0.00 in0.0 mm 0.00 in0.0 mm 0.16 in4.1 mm
08:19 AM 52.2°F11.2°C 41.5°F5.3°C 67% Calm Calm 1.0 mph1.6 kmh 29.59 in1002.0 mb 0.01 in0.3 mm 0.03 in0.8 mm 0.17 in4.3 mm
08:26 AM 52.2°F11.2°C 41.2°F5.1°C 66% Calm Calm 1.0 mph1.6 kmh 29.59 in1002.0 mb 0.01 in0.3 mm 0.00 in0.0 mm 0.17 in4.3 mm
08:33 AM 52.2°F11.2°C 41.2°F5.1°C 66% Calm Calm 1.0 mph1.6 kmh 29.60 in1002.4 mb 0.01 in0.3 mm 0.00 in0.0 mm 0.17 in4.3 mm
08:40 AM 52.5°F11.4°C 41.5°F5.3°C 66% Calm Calm 4.0 mph6.4 kmh 29.60 in1002.4 mb 0.01 in0.3 mm 0.00 in0.0 mm 0.17 in4.3 mm
08:47 AM 53.4°F11.9°C 41.2°F5.1°C 63% Calm Calm 4.0 mph6.4 kmh 29.60 in1002.4 mb 0.01 in0.3 mm 0.00 in0.0 mm 0.17 in4.3 mm
08:54 AM 53.6°F12.0°C 41.4°F5.2°C 63% 1.0 mph N1.6 kmh N 4.0 mph6.4 kmh 29.60 in1002.4 mb 0.01 in0.3 mm 0.00 in0.0 mm 0.17 in4.3 mm
09:01 AM 53.8°F12.1°C 41.0°F5.0°C 62% 1.0 mph N1.6 kmh N 3.0 mph4.8 kmh 29.60 in1002.4 mb 0.01 in0.3 mm 0.00 in0.0 mm 0.17 in4.3 mm
09:08 AM 53.8°F12.1°C 41.4°F5.2°C 63% 1.0 mph N1.6 kmh N 3.0 mph4.8 kmh 29.61 in1002.7 mb 0.01 in0.3 mm 0.00 in0.0 mm 0.17 in4.3 mm
09:15 AM 54.1°F12.3°C 41.4°F5.2°C 62% 1.0 mph N1.6 kmh N 4.0 mph6.4 kmh 29.61 in1002.7 mb 0.01 in0.3 mm 0.00 in0.0 mm 0.17 in4.3 mm
09:22 AM 54.3°F12.4°C 41.5°F5.3°C 62% 1.0 mph N1.6 kmh N 4.0 mph6.4 kmh 29.59 in1002.0 mb 0.00 in0.0 mm 0.00 in0.0 mm 0.17 in4.3 mm
09:29 AM 54.9°F12.7°C 41.2°F5.1°C 60% 1.0 mph N1.6 kmh N 4.0 mph6.4 kmh 29.59 in1002.0 mb 0.00 in0.0 mm 0.00 in0.0 mm 0.17 in4.3 mm
09:36 AM 55.0°F12.8°C 42.3°F5.7°C 62% 1.0 mph N1.6 kmh N 4.0 mph6.4 kmh 29.59 in1002.0 mb 0.00 in0.0 mm 0.00 in0.0 mm 0.17 in4.3 mm
09:43 AM 55.0°F12.8°C 41.0°F5.0°C 59% 1.0 mph N1.6 kmh N 3.0 mph4.8 kmh 29.59 in1002.0 mb 0.00 in0.0 mm 0.00 in0.0 mm 0.17 in4.3 mm
09:50 AM 55.8°F13.2°C 41.7°F5.4°C 59% 1.0 mph N1.6 kmh N 5.0 mph8.0 kmh 29.58 in1001.7 mb 0.00 in0.0 mm 0.00 in0.0 mm 0.17 in4.3 mm
09:57 AM 55.9°F13.3°C 41.4°F5.2°C 58% 1.0 mph N1.6 kmh N 4.0 mph6.4 kmh 29.58 in1001.7 mb 0.00 in0.0 mm 0.00 in0.0 mm 0.17 in4.3 mm
10:04 AM 56.5°F13.6°C 41.4°F5.2°C 57% 1.0 mph N1.6 kmh N 5.0 mph8.0 kmh 29.58 in1001.7 mb 0.00 in0.0 mm 0.00 in0.0 mm 0.17 in4.3 mm
10:11 AM 56.7°F13.7°C 41.5°F5.3°C 57% 1.0 mph N1.6 kmh N 5.0 mph8.0 kmh 29.59 in1002.0 mb 0.00 in0.0 mm 0.00 in0.0 mm 0.17 in4.3 mm
10:18 AM 57.0°F13.9°C 41.9°F5.5°C 57% 3.0 mph N4.8 kmh N 5.0 mph8.0 kmh 29.58 in1001.7 mb 0.00 in0.0 mm 0.00 in0.0 mm 0.17 in4.3 mm
10:25 AM 57.4°F14.1°C 40.8°F4.9°C 54% 3.0 mph N4.8 kmh N 7.0 mph11.3 kmh 29.59 in1002.0 mb 0.00 in0.0 mm 0.00 in0.0 mm 0.17 in4.3 mm
10:32 AM 57.6°F14.2°C 41.0°F5.0°C 54% 3.0 mph N4.8 kmh N 7.0 mph11.3 kmh 29.58 in1001.7 mb 0.00 in0.0 mm 0.00 in0.0 mm 0.17 in4.3 mm
10:39 AM 57.7°F14.3°C 40.6°F4.8°C 53% 3.0 mph N4.8 kmh N 7.0 mph11.3 kmh 29.58 in1001.7 mb 0.00 in0.0 mm 0.00 in0.0 mm 0.17 in4.3 mm
10:46 AM 57.9°F14.4°C 41.0°F5.0°C 53% 3.0 mph N4.8 kmh N 8.0 mph12.9 kmh 29.58 in1001.7 mb 0.00 in0.0 mm 0.00 in0.0 mm 0.17 in4.3 mm
10:53 AM 58.5°F14.7°C 41.0°F5.0°C 52% 4.0 mph N6.4 kmh N 8.0 mph12.9 kmh 29.58 in1001.7 mb 0.00 in0.0 mm 0.00 in0.0 mm 0.17 in4.3 mm
11:00 AM 59.0°F15.0°C 41.4°F5.2°C 52% 3.0 mph N4.8 kmh N 5.0 mph8.0 kmh 29.58 in1001.7 mb 0.00 in0.0 mm 0.00 in0.0 mm 0.17 in4.3 mm
11:07 AM 59.4°F15.2°C 40.6°F4.8°C 50% 4.0 mph SSW6.4 kmh SSW 8.0 mph12.9 kmh 29.58 in1001.7 mb 0.00 in0.0 mm 0.00 in0.0 mm 0.17 in4.3 mm
11:14 AM 59.7°F15.4°C 40.6°F4.8°C 49% 5.0 mph SSW8.0 kmh SSW 13.0 mph20.9 kmh 29.58 in1001.7 mb 0.00 in0.0 mm 0.00 in0.0 mm 0.17 in4.3 mm
11:21 AM 59.7°F15.4°C 39.6°F4.2°C 47% 5.0 mph SW8.0 kmh SW 15.0 mph24.1 kmh 29.57 in1001.4 mb 0.00 in0.0 mm 0.00 in0.0 mm 0.17 in4.3 mm
11:28 AM 60.4°F15.8°C 38.5°F3.6°C 44% 4.0 mph SSW6.4 kmh SSW 12.0 mph19.3 kmh 29.57 in1001.4 mb 0.00 in0.0 mm 0.00 in0.0 mm 0.17 in4.3 mm
11:35 AM 60.4°F15.8°C 39.0°F3.9°C 45% 5.0 mph SW8.0 kmh SW 16.0 mph25.7 kmh 29.57 in1001.4 mb 0.00 in0.0 mm 0.00 in0.0 mm 0.17 in4.3 mm
11:42 AM 60.6°F15.9°C 39.2°F4.0°C 45% 4.0 mph SSW6.4 kmh SSW 15.0 mph24.1 kmh 29.56 in1001.0 mb 0.00 in0.0 mm 0.00 in0.0 mm 0.17 in4.3 mm
11:49 AM 61.0°F16.1°C 38.3°F3.5°C 43% 3.0 mph S4.8 kmh S 11.0 mph17.7 kmh 29.56 in1001.0 mb 0.00 in0.0 mm 0.00 in0.0 mm 0.17 in4.3 mm
11:56 AM 60.6°F15.9°C 37.4°F3.0°C 42% 5.0 mph NW8.0 kmh NW 13.0 mph20.9 kmh 29.56 in1001.0 mb 0.00 in0.0 mm 0.00 in0.0 mm 0.17 in4.3 mm
12:03 PM 61.0°F16.1°C 37.8°F3.2°C 42% 5.0 mph N8.0 kmh N 13.0 mph20.9 kmh 29.56 in1001.0 mb 0.00 in0.0 mm 0.00 in0.0 mm 0.17 in4.3 mm
12:10 PM 60.8°F16.0°C 36.9°F2.7°C 41% 7.0 mph N11.3 kmh N 13.0 mph20.9 kmh 29.55 in1000.7 mb 0.00 in0.0 mm 0.00 in0.0 mm 0.17 in4.3 mm
12:17 PM 60.6°F15.9°C 36.9°F2.7°C 41% 5.0 mph N8.0 kmh N 13.0 mph20.9 kmh 29.55 in1000.7 mb 0.00 in0.0 mm 0.00 in0.0 mm 0.17 in4.3 mm
12:24 PM 61.2°F16.2°C 36.0°F2.2°C 39% 5.0 mph N8.0 kmh N 19.0 mph30.6 kmh 29.55 in1000.7 mb 0.00 in0.0 mm 0.00 in0.0 mm 0.17 in4.3 mm
12:31 PM 60.6°F15.9°C 35.6°F2.0°C 39% 5.0 mph N8.0 kmh N 20.0 mph32.2 kmh 29.55 in1000.7 mb 0.00 in0.0 mm 0.00 in0.0 mm 0.17 in4.3 mm
12:38 PM 60.4°F15.8°C 36.5°F2.5°C 41% 5.0 mph N8.0 kmh N 19.0 mph30.6 kmh 29.55 in1000.7 mb 0.00 in0.0 mm 0.00 in0.0 mm 0.17 in4.3 mm
12:45 PM 61.2°F16.2°C 37.2°F2.9°C 41% 5.0 mph N8.0 kmh N 15.0 mph24.1 kmh 29.55 in1000.7 mb 0.00 in0.0 mm 0.00 in0.0 mm 0.17 in4.3 mm
12:52 PM 62.1°F16.7°C 36.1°F2.3°C 38% 5.0 mph N8.0 kmh N 15.0 mph24.1 kmh 29.55 in1000.7 mb 0.00 in0.0 mm 0.00 in0.0 mm 0.17 in4.3 mm
12:59 PM 61.5°F16.4°C 35.6°F2.0°C 38% 7.0 mph N11.3 kmh N 25.0 mph40.2 kmh 29.55 in1000.7 mb 0.00 in0.0 mm 0.00 in0.0 mm 0.17 in4.3 mm
01:06 PM 60.4°F15.8°C 36.0°F2.2°C 40% 7.0 mph N11.3 kmh N 25.0 mph40.2 kmh 29.56 in1001.0 mb 0.00 in0.0 mm 0.00 in0.0 mm 0.17 in4.3 mm
01:13 PM 60.3°F15.7°C 36.5°F2.5°C 41% 7.0 mph N11.3 kmh N 24.0 mph38.6 kmh 29.56 in1001.0 mb 0.00 in0.0 mm 0.00 in0.0 mm 0.17 in4.3 mm
01:20 PM 60.1°F15.6°C 36.9°F2.7°C 42% 7.0 mph N11.3 kmh N 21.0 mph33.8 kmh 29.55 in1000.7 mb 0.00 in0.0 mm 0.00 in0.0 mm 0.17 in4.3 mm
01:27 PM 60.4°F15.8°C 37.9°F3.3°C 43% 5.0 mph N8.0 kmh N 25.0 mph40.2 kmh 29.56 in1001.0 mb 0.00 in0.0 mm 0.00 in0.0 mm 0.17 in4.3 mm
01:34 PM 59.7°F15.4°C 36.7°F2.6°C 42% 4.0 mph N6.4 kmh N 17.0 mph27.4 kmh 29.56 in1001.0 mb 0.00 in0.0 mm 0.00 in0.0 mm 0.17 in4.3 mm
01:41 PM 59.2°F15.1°C 35.4°F1.9°C 41% 7.0 mph N11.3 kmh N 19.0 mph30.6 kmh 29.56 in1001.0 mb 0.00 in0.0 mm 0.00 in0.0 mm 0.17 in4.3 mm
01:48 PM 59.0°F15.0°C 36.0°F2.2°C 42% 8.0 mph N12.9 kmh N 29.0 mph46.7 kmh 29.57 in1001.4 mb 0.00 in0.0 mm 0.00 in0.0 mm 0.17 in4.3 mm
01:55 PM 58.5°F14.7°C 36.7°F2.6°C 44% 7.0 mph N11.3 kmh N 29.0 mph46.7 kmh 29.57 in1001.4 mb 0.00 in0.0 mm 0.00 in0.0 mm 0.17 in4.3 mm
02:02 PM 57.9°F14.4°C 36.7°F2.6°C 45% 7.0 mph N11.3 kmh N 25.0 mph40.2 kmh 29.57 in1001.4 mb 0.00 in0.0 mm 0.00 in0.0 mm 0.17 in4.3 mm
02:09 PM 57.4°F14.1°C 36.9°F2.7°C 46% 4.0 mph N6.4 kmh N 15.0 mph24.1 kmh 29.57 in1001.4 mb 0.00 in0.0 mm 0.00 in0.0 mm 0.17 in4.3 mm
02:16 PM 56.8°F13.8°C 37.2°F2.9°C 48% 8.0 mph N12.9 kmh N 20.0 mph32.2 kmh 29.57 in1001.4 mb 0.00 in0.0 mm 0.00 in0.0 mm 0.17 in4.3 mm
02:23 PM 56.5°F13.6°C 37.6°F3.1°C 49% 8.0 mph N12.9 kmh N 20.0 mph32.2 kmh 29.58 in1001.7 mb 0.00 in0.0 mm 0.00 in0.0 mm 0.17 in4.3 mm
02:30 PM 56.5°F13.6°C 37.6°F3.1°C 49% 7.0 mph N11.3 kmh N 20.0 mph32.2 kmh 29.58 in1001.7 mb 0.00 in0.0 mm 0.00 in0.0 mm 0.17 in4.3 mm
02:37 PM 56.7°F13.7°C 36.7°F2.6°C 47% 5.0 mph N8.0 kmh N 20.0 mph32.2 kmh 29.58 in1001.7 mb 0.00 in0.0 mm 0.00 in0.0 mm 0.17 in4.3 mm
02:44 PM 56.7°F13.7°C 36.7°F2.6°C 47% 5.0 mph N8.0 kmh N 12.0 mph19.3 kmh 29.58 in1001.7 mb 0.00 in0.0 mm 0.00 in0.0 mm 0.17 in4.3 mm
02:51 PM 56.7°F13.7°C 36.7°F2.6°C 47% 5.0 mph N8.0 kmh N 19.0 mph30.6 kmh 29.58 in1001.7 mb 0.00 in0.0 mm 0.00 in0.0 mm 0.17 in4.3 mm
02:58 PM 56.7°F13.7°C 36.5°F2.5°C 47% 7.0 mph N11.3 kmh N 21.0 mph33.8 kmh 29.58 in1001.7 mb 0.00 in0.0 mm 0.00 in0.0 mm 0.17 in4.3 mm
03:05 PM 56.5°F13.6°C 36.0°F2.2°C 46% 7.0 mph N11.3 kmh N 20.0 mph32.2 kmh 29.59 in1002.0 mb 0.00 in0.0 mm 0.00 in0.0 mm 0.17 in4.3 mm
03:12 PM 56.3°F13.5°C 35.8°F2.1°C 46% 7.0 mph N11.3 kmh N 20.0 mph32.2 kmh 29.59 in1002.0 mb 0.00 in0.0 mm 0.00 in0.0 mm 0.17 in4.3 mm
03:19 PM 56.1°F13.4°C 35.6°F2.0°C 46% 7.0 mph N11.3 kmh N 19.0 mph30.6 kmh 29.60 in1002.4 mb 0.00 in0.0 mm 0.00 in0.0 mm 0.17 in4.3 mm
03:26 PM 55.9°F13.3°C 35.4°F1.9°C 46% 5.0 mph N8.0 kmh N 17.0 mph27.4 kmh 29.60 in1002.4 mb 0.00 in0.0 mm 0.00 in0.0 mm 0.17 in4.3 mm
03:33 PM 55.9°F13.3°C 35.4°F1.9°C 46% 3.0 mph N4.8 kmh N 16.0 mph25.7 kmh 29.59 in1002.0 mb 0.00 in0.0 mm 0.00 in0.0 mm 0.17 in4.3 mm
03:40 PM 55.9°F13.3°C 34.3°F1.3°C 44% 5.0 mph N8.0 kmh N 19.0 mph30.6 kmh 29.60 in1002.4 mb 0.00 in0.0 mm 0.00 in0.0 mm 0.17 in4.3 mm
03:47 PM 55.8°F13.2°C 34.2°F1.2°C 44% 7.0 mph N11.3 kmh N 16.0 mph25.7 kmh 29.60 in1002.4 mb 0.00 in0.0 mm 0.00 in0.0 mm 0.17 in4.3 mm
03:54 PM 55.6°F13.1°C 34.0°F1.1°C 44% 7.0 mph N11.3 kmh N 20.0 mph32.2 kmh 29.60 in1002.4 mb 0.00 in0.0 mm 0.00 in0.0 mm 0.17 in4.3 mm
04:01 PM 55.4°F13.0°C 33.8°F1.0°C 44% 5.0 mph N8.0 kmh N 16.0 mph25.7 kmh 29.60 in1002.4 mb 0.00 in0.0 mm 0.00 in0.0 mm 0.17 in4.3 mm
04:08 PM 55.0°F12.8°C 33.6°F0.9°C 44% 5.0 mph N8.0 kmh N 20.0 mph32.2 kmh 29.60 in1002.4 mb 0.00 in0.0 mm 0.00 in0.0 mm 0.17 in4.3 mm
04:15 PM 54.9°F12.7°C 34.0°F1.1°C 45% 7.0 mph N11.3 kmh N 20.0 mph32.2 kmh 29.60 in1002.4 mb 0.00 in0.0 mm 0.00 in0.0 mm 0.17 in4.3 mm
04:22 PM 54.9°F12.7°C 34.9°F1.6°C 47% 5.0 mph N8.0 kmh N 17.0 mph27.4 kmh 29.60 in1002.4 mb 0.00 in0.0 mm 0.00 in0.0 mm 0.17 in4.3 mm
04:29 PM 55.0°F12.8°C 34.7°F1.5°C 46% 5.0 mph N8.0 kmh N 19.0 mph30.6 kmh 29.60 in1002.4 mb 0.00 in0.0 mm 0.00 in0.0 mm 0.17 in4.3 mm
04:36 PM 54.9°F12.7°C 34.3°F1.3°C 46% 4.0 mph N6.4 kmh N 19.0 mph30.6 kmh 29.61 in1002.7 mb 0.00 in0.0 mm 0.00 in0.0 mm 0.17 in4.3 mm
04:43 PM 54.3°F12.4°C 34.0°F1.1°C 46% 5.0 mph N8.0 kmh N 16.0 mph25.7 kmh 29.60 in1002.4 mb 0.00 in0.0 mm 0.00 in0.0 mm 0.17 in4.3 mm
04:50 PM 54.0°F12.2°C 34.2°F1.2°C 47% 4.0 mph N6.4 kmh N 12.0 mph19.3 kmh 29.61 in1002.7 mb 0.00 in0.0 mm 0.00 in0.0 mm 0.17 in4.3 mm
04:57 PM 53.8°F12.1°C 34.0°F1.1°C 47% 4.0 mph N6.4 kmh N 12.0 mph19.3 kmh 29.61 in1002.7 mb 0.00 in0.0 mm 0.00 in0.0 mm 0.17 in4.3 mm
05:04 PM 53.8°F12.1°C 34.5°F1.4°C 48% 3.0 mph N4.8 kmh N 8.0 mph12.9 kmh 29.61 in1002.7 mb 0.00 in0.0 mm 0.00 in0.0 mm 0.17 in4.3 mm
05:11 PM 53.6°F12.0°C 34.3°F1.3°C 48% 3.0 mph N4.8 kmh N 13.0 mph20.9 kmh 29.62 in1003.0 mb 0.00 in0.0 mm 0.00 in0.0 mm 0.17 in4.3 mm
05:18 PM 53.4°F11.9°C 34.9°F1.6°C 49% 4.0 mph N6.4 kmh N 13.0 mph20.9 kmh 29.62 in1003.0 mb 0.00 in0.0 mm 0.00 in0.0 mm 0.17 in4.3 mm
05:25 PM 53.4°F11.9°C 34.9°F1.6°C 49% 4.0 mph N6.4 kmh N 9.0 mph14.5 kmh 29.62 in1003.0 mb 0.00 in0.0 mm 0.00 in0.0 mm 0.17 in4.3 mm
05:32 PM 53.4°F11.9°C 34.7°F1.5°C 49% 3.0 mph N4.8 kmh N 7.0 mph11.3 kmh 29.63 in1003.4 mb 0.00 in0.0 mm 0.00 in0.0 mm 0.17 in4.3 mm
05:39 PM 53.2°F11.8°C 35.1°F1.7°C 50% 3.0 mph N4.8 kmh N 8.0 mph12.9 kmh 29.63 in1003.4 mb 0.00 in0.0 mm 0.00 in0.0 mm 0.17 in4.3 mm
05:46 PM 53.1°F11.7°C 35.4°F1.9°C 51% 4.0 mph N6.4 kmh N 17.0 mph27.4 kmh 29.63 in1003.4 mb 0.00 in0.0 mm 0.00 in0.0 mm 0.17 in4.3 mm
05:53 PM 52.5°F11.4°C 35.4°F1.9°C 52% 5.0 mph N8.0 kmh N 17.0 mph27.4 kmh 29.64 in1003.7 mb 0.00 in0.0 mm 0.00 in0.0 mm 0.17 in4.3 mm
06:00 PM 52.2°F11.2°C 36.0°F2.2°C 54% 5.0 mph N8.0 kmh N 17.0 mph27.4 kmh 29.64 in1003.7 mb 0.00 in0.0 mm 0.00 in0.0 mm 0.17 in4.3 mm
06:07 PM 51.8°F11.0°C 35.6°F2.0°C 54% 4.0 mph N6.4 kmh N 15.0 mph24.1 kmh 29.65 in1004.1 mb 0.00 in0.0 mm 0.00 in0.0 mm 0.17 in4.3 mm
06:14 PM 51.6°F10.9°C 36.0°F2.2°C 55% 4.0 mph N6.4 kmh N 9.0 mph14.5 kmh 29.65 in1004.1 mb 0.00 in0.0 mm 0.00 in0.0 mm 0.17 in4.3 mm
06:21 PM 51.4°F10.8°C 35.8°F2.1°C 55% 4.0 mph N6.4 kmh N 13.0 mph20.9 kmh 29.65 in1004.1 mb 0.00 in0.0 mm 0.00 in0.0 mm 0.17 in4.3 mm
06:28 PM 51.4°F10.8°C 35.8°F2.1°C 55% 3.0 mph N4.8 kmh N 12.0 mph19.3 kmh 29.66 in1004.4 mb 0.00 in0.0 mm 0.00 in0.0 mm 0.17 in4.3 mm
06:35 PM 51.3°F10.7°C 35.6°F2.0°C 55% 3.0 mph N4.8 kmh N 13.0 mph20.9 kmh 29.65 in1004.1 mb 0.00 in0.0 mm 0.00 in0.0 mm 0.17 in4.3 mm
06:42 PM 51.1°F10.6°C 35.4°F1.9°C 55% 3.0 mph N4.8 kmh N 13.0 mph20.9 kmh 29.66 in1004.4 mb 0.00 in0.0 mm 0.00 in0.0 mm 0.17 in4.3 mm
06:49 PM 51.1°F10.6°C 35.4°F1.9°C 55% 3.0 mph N4.8 kmh N 15.0 mph24.1 kmh 29.66 in1004.4 mb 0.00 in0.0 mm 0.00 in0.0 mm 0.17 in4.3 mm
06:56 PM 50.9°F10.5°C 35.8°F2.1°C 56% 4.0 mph N6.4 kmh N 15.0 mph24.1 kmh 29.66 in1004.4 mb 0.00 in0.0 mm 0.00 in0.0 mm 0.17 in4.3 mm
07:03 PM 50.5°F10.3°C 35.4°F1.9°C 56% 4.0 mph N6.4 kmh N 12.0 mph19.3 kmh 29.66 in1004.4 mb 0.00 in0.0 mm 0.00 in0.0 mm 0.17 in4.3 mm
07:10 PM 50.5°F10.3°C 35.4°F1.9°C 56% 3.0 mph N4.8 kmh N 12.0 mph19.3 kmh 29.66 in1004.4 mb 0.00 in0.0 mm 0.00 in0.0 mm 0.17 in4.3 mm
07:17 PM 50.5°F10.3°C 34.9°F1.6°C 55% 4.0 mph N6.4 kmh N 12.0 mph19.3 kmh 29.66 in1004.4 mb 0.00 in0.0 mm 0.00 in0.0 mm 0.17 in4.3 mm
07:24 PM 50.4°F10.2°C 35.2°F1.8°C 56% 5.0 mph N8.0 kmh N 17.0 mph27.4 kmh 29.67 in1004.7 mb 0.00 in0.0 mm 0.00 in0.0 mm 0.17 in4.3 mm
07:31 PM 50.4°F10.2°C 34.7°F1.5°C 55% 5.0 mph N8.0 kmh N 20.0 mph32.2 kmh 29.67 in1004.7 mb 0.00 in0.0 mm 0.00 in0.0 mm 0.17 in4.3 mm
07:38 PM 50.0°F10.0°C 34.9°F1.6°C 56% 5.0 mph N8.0 kmh N 20.0 mph32.2 kmh 29.67 in1004.7 mb 0.00 in0.0 mm 0.00 in0.0 mm 0.17 in4.3 mm
07:45 PM 49.8°F9.9°C 35.2°F1.8°C 57% 4.0 mph N6.4 kmh N 17.0 mph27.4 kmh 29.67 in1004.7 mb 0.00 in0.0 mm 0.00 in0.0 mm 0.17 in4.3 mm
07:52 PM 49.6°F9.8°C 35.1°F1.7°C 57% 5.0 mph N8.0 kmh N 13.0 mph20.9 kmh 29.68 in1005.1 mb 0.00 in0.0 mm 0.00 in0.0 mm 0.17 in4.3 mm
07:59 PM 49.5°F9.7°C 35.2°F1.8°C 58% 4.0 mph N6.4 kmh N 13.0 mph20.9 kmh 29.68 in1005.1 mb 0.00 in0.0 mm 0.00 in0.0 mm 0.17 in4.3 mm
08:06 PM 49.5°F9.7°C 35.2°F1.8°C 58% 4.0 mph N6.4 kmh N 13.0 mph20.9 kmh 29.68 in1005.1 mb 0.00 in0.0 mm 0.00 in0.0 mm 0.17 in4.3 mm
08:13 PM 49.3°F9.6°C 35.1°F1.7°C 58% 4.0 mph N6.4 kmh N 13.0 mph20.9 kmh 29.68 in1005.1 mb 0.00 in0.0 mm 0.00 in0.0 mm 0.17 in4.3 mm
08:20 PM 49.3°F9.6°C 35.1°F1.7°C 58% 4.0 mph N6.4 kmh N 12.0 mph19.3 kmh 29.68 in1005.1 mb 0.00 in0.0 mm 0.00 in0.0 mm 0.17 in4.3 mm
08:27 PM 49.3°F9.6°C 35.6°F2.0°C 59% 4.0 mph N6.4 kmh N 11.0 mph17.7 kmh 29.68 in1005.1 mb 0.00 in0.0 mm 0.00 in0.0 mm 0.17 in4.3 mm
08:34 PM 49.3°F9.6°C 35.6°F2.0°C 59% 3.0 mph N4.8 kmh N 11.0 mph17.7 kmh 29.68 in1005.1 mb 0.00 in0.0 mm 0.00 in0.0 mm 0.17 in4.3 mm
08:41 PM 49.5°F9.7°C 35.8°F2.1°C 59% 3.0 mph N4.8 kmh N 17.0 mph27.4 kmh 29.69 in1005.4 mb 0.00 in0.0 mm 0.00 in0.0 mm 0.17 in4.3 mm
08:48 PM 49.5°F9.7°C 35.2°F1.8°C 58% 5.0 mph N8.0 kmh N 17.0 mph27.4 kmh 29.69 in1005.4 mb 0.00 in0.0 mm 0.00 in0.0 mm 0.17 in4.3 mm
08:55 PM 49.3°F9.6°C 35.6°F2.0°C 59% 4.0 mph N6.4 kmh N 9.0 mph14.5 kmh 29.69 in1005.4 mb 0.00 in0.0 mm 0.00 in0.0 mm 0.17 in4.3 mm
09:02 PM 49.3°F9.6°C 35.4°F1.9°C 59% 3.0 mph N4.8 kmh N 12.0 mph19.3 kmh 29.69 in1005.4 mb 0.00 in0.0 mm 0.00 in0.0 mm 0.17 in4.3 mm
09:09 PM 49.1°F9.5°C 35.4°F1.9°C 59% 4.0 mph N6.4 kmh N 12.0 mph19.3 kmh 29.70 in1005.8 mb 0.00 in0.0 mm 0.00 in0.0 mm 0.17 in4.3 mm
09:16 PM 48.9°F9.4°C 35.2°F1.8°C 59% 1.0 mph N1.6 kmh N 7.0 mph11.3 kmh 29.70 in1005.8 mb 0.00 in0.0 mm 0.00 in0.0 mm 0.17 in4.3 mm
09:23 PM 48.9°F9.4°C 35.2°F1.8°C 59% 1.0 mph N1.6 kmh N 8.0 mph12.9 kmh 29.70 in1005.8 mb 0.00 in0.0 mm 0.00 in0.0 mm 0.17 in4.3 mm
09:30 PM 48.9°F9.4°C 35.2°F1.8°C 59% 3.0 mph N4.8 kmh N 8.0 mph12.9 kmh 29.70 in1005.8 mb 0.00 in0.0 mm 0.00 in0.0 mm 0.17 in4.3 mm
09:37 PM 48.9°F9.4°C 34.9°F1.6°C 58% 4.0 mph N6.4 kmh N 12.0 mph19.3 kmh 29.70 in1005.8 mb 0.00 in0.0 mm 0.00 in0.0 mm 0.17 in4.3 mm
09:44 PM 48.9°F9.4°C 34.3°F1.3°C 57% 4.0 mph N6.4 kmh N 13.0 mph20.9 kmh 29.71 in1006.1 mb 0.00 in0.0 mm 0.00 in0.0 mm 0.17 in4.3 mm
09:51 PM 48.9°F9.4°C 34.3°F1.3°C 57% 5.0 mph N8.0 kmh N 16.0 mph25.7 kmh 29.70 in1005.8 mb 0.00 in0.0 mm 0.00 in0.0 mm 0.17 in4.3 mm
09:58 PM 48.9°F9.4°C 34.0°F1.1°C 56% 5.0 mph N8.0 kmh N 13.0 mph20.9 kmh 29.70 in1005.8 mb 0.00 in0.0 mm 0.00 in0.0 mm 0.17 in4.3 mm
10:05 PM 48.9°F9.4°C 34.0°F1.1°C 56% 4.0 mph N6.4 kmh N 13.0 mph20.9 kmh 29.70 in1005.8 mb 0.00 in0.0 mm 0.00 in0.0 mm 0.17 in4.3 mm
10:12 PM 48.7°F9.3°C 33.8°F1.0°C 56% 3.0 mph N4.8 kmh N 8.0 mph12.9 kmh 29.70 in1005.8 mb 0.00 in0.0 mm 0.00 in0.0 mm 0.17 in4.3 mm
10:19 PM 48.7°F9.3°C 33.8°F1.0°C 56% 4.0 mph N6.4 kmh N 12.0 mph19.3 kmh 29.70 in1005.8 mb 0.00 in0.0 mm 0.00 in0.0 mm 0.17 in4.3 mm
10:26 PM 48.7°F9.3°C 34.2°F1.2°C 57% 3.0 mph N4.8 kmh N 9.0 mph14.5 kmh 29.70 in1005.8 mb 0.00 in0.0 mm 0.00 in0.0 mm 0.17 in4.3 mm
10:33 PM 48.7°F9.3°C 33.6°F0.9°C 56% 3.0 mph N4.8 kmh N 12.0 mph19.3 kmh 29.70 in1005.8 mb 0.00 in0.0 mm 0.00 in0.0 mm 0.17 in4.3 mm
10:40 PM 48.7°F9.3°C 33.6°F0.9°C 56% 4.0 mph N6.4 kmh N 13.0 mph20.9 kmh 29.70 in1005.8 mb 0.00 in0.0 mm 0.00 in0.0 mm 0.17 in4.3 mm
10:47 PM 48.6°F9.2°C 33.6°F0.9°C 56% 3.0 mph N4.8 kmh N 9.0 mph14.5 kmh 29.70 in1005.8 mb 0.00 in0.0 mm 0.00 in0.0 mm 0.17 in4.3 mm
10:54 PM 48.6°F9.2°C 33.4°F0.8°C 56% 1.0 mph N1.6 kmh N 9.0 mph14.5 kmh 29.70 in1005.8 mb 0.00 in0.0 mm 0.00 in0.0 mm 0.17 in4.3 mm
11:01 PM 48.6°F9.2°C 33.4°F0.8°C 56% 1.0 mph N1.6 kmh N 9.0 mph14.5 kmh 29.70 in1005.8 mb 0.00 in0.0 mm 0.00 in0.0 mm 0.11 in2.8 mm
11:08 PM 48.4°F9.1°C 33.8°F1.0°C 57% Calm Calm 3.0 mph4.8 kmh 29.70 in1005.8 mb 0.00 in0.0 mm 0.00 in0.0 mm 0.11 in2.8 mm
11:15 PM 48.6°F9.2°C 34.0°F1.1°C 57% Calm Calm 3.0 mph4.8 kmh 29.70 in1005.8 mb 0.00 in0.0 mm 0.00 in0.0 mm 0.11 in2.8 mm
11:22 PM 48.6°F9.2°C 34.0°F1.1°C 57% Calm Calm 3.0 mph4.8 kmh 29.70 in1005.8 mb 0.00 in0.0 mm 0.00 in0.0 mm 0.11 in2.8 mm
11:29 PM 48.4°F9.1°C 34.3°F1.3°C 58% Calm Calm 3.0 mph4.8 kmh 29.70 in1005.8 mb 0.00 in0.0 mm 0.00 in0.0 mm 0.11 in2.8 mm
11:36 PM 48.4°F9.1°C 34.2°F1.2°C 58% Calm Calm 3.0 mph4.8 kmh 29.69 in1005.4 mb 0.00 in0.0 mm 0.00 in0.0 mm 0.11 in2.8 mm
11:43 PM 48.2°F9.0°C 34.2°F1.2°C 58% Calm Calm 3.0 mph4.8 kmh 29.69 in1005.4 mb 0.00 in0.0 mm 0.00 in0.0 mm 0.11 in2.8 mm
11:50 PM 47.8°F8.8°C 34.3°F1.3°C 59% Calm Calm 3.0 mph4.8 kmh 29.69 in1005.4 mb 0.00 in0.0 mm 0.00 in0.0 mm 0.11 in2.8 mm
11:57 PM 47.8°F8.8°C 34.7°F1.5°C 60% Calm Calm 3.0 mph4.8 kmh 29.69 in1005.4 mb 0.00 in0.0 mm 0.00 in0.0 mm 0.11 in2.8 mm